Saint Médard d'Aunis (17)                     Janvier 2022                                  
  Température (°C) - Abri Young à ventilation mécanique 43502 (moy/5min)  Davis 7714 (moy/1min) Humidité Vent Davis (km/h) PeetBros Instromet Précipitations (mm) Pression (hPa) Divers  
Date Maxi USCRN /5min Mini  USCRN /5min Moy de 1440 relevés Moy (tx+tn)/2 Index chaleur moyen Index chaleur maxi Froid dû au vent moy/5min  Froid dû au vent mini/5min   Amplitude (tx-tn) Tx OMM/1min Tn OMM/1min Moy de 1440 relevés Moy (tx+tn)/2 Relative maxi Relative mini Relative moy de 1440 relevés Relative moy (hx+hn)/2 Point de rosée maxi Point de rosée mini Point de rosée moy 1440 relevés Vent moy maxi (10min) Vent  moyen (24h) Direction dominante Rafales (km/h) maxi Direction rafale maxi Rafales moy (24h) Rafales (km/h)   maxi Rafales (km/h)   maxi Total du jour (mm) Durée en heures et dixièmes Intensité maxi sur 1 min (mm/h) Maxi Mini Moy de 1440 relevés Moy (px+pn)/2 Variation Epaisseur neige (cm) Ensoleillement (h:min) Remarques diverses    
01/01/2022 14,8 4,9 9,92 9,85 10,00 14,8 8,47 3,1 9,8 15,1 4,9 9,94 10,00 94% 81% 90,3% 87,5% 12,1 4,1 8,38 18,82 10,24 SE 27,4 SE 13,34 26,6 27 0,2 0,1 12,0 1025,1 1021,0 1023,51 1023,05 4,1   5:27 Ciel entre 0/8 et 6/8  
02/01/2022 15,1 10,5 12,34 12,80 12,40 15,1 10,23 8,3 4,5 15,6 10,6 12,38 13,10 93% 81% 90,3% 87,0% 13,4 8,9 10,79 31,40 16,07 SW 43,5 WSW 20,92 46,8 46 0,2 0,1 12,0 1026,2 1020,2 1023,84 1023,20 6,0   1:51 Ciel entre 6/8 et 8/8  
03/01/2022 14,7 11,2 12,57 12,95 12,63 14,6 10,64 8,7 3,4 14,7 11,2 12,54 12,95 94% 82% 90,6% 88,0% 12,8 10,1 11,07 26,55 15,26 SSW 45,1 SSW 20,70 46,0 45 4,4 1,6 24,0 1025,2 1007,8 1018,35 1016,50 17,4   0:23 Ciel entre 7/8 et 8/8, pluie intermittente  
04/01/2022 13,7 3,6 9,71 8,65 9,82 13,7 7,01 0,0 10,0 13,5 3,6 9,68 8,55 93% 83% 90,5% 88,0% 12,2 2,1 8,24 32,84 17,08 WNW 46,7 WSW 21,79 51,0 50 8,2 2,3 12,0 1014,4 1003,5 1007,50 1008,95 10,9   0:00 Ciel entre 7/8 et 8/8, pluie, averses  
05/01/2022 8,2 -0,1 4,39 4,06 4,34 8,0 2,62 -1,8 8,2 8,2 -0,1 4,34 4,05 93% 66% 84,5% 79,5% 3,8 -1,1 2,00 15,78 8,14 NNW 20,9 NW 10,46 21,9 * 0,2 0,1 12,0 1022,7 1014,3 1018,89 1018,50 8,4   7:51 Ciel 0/8 le matin, entre 0/8 et 2/8 l'après-midi  
06/01/2022 8,0 -2,5 2,78 2,74 2,74 7,7 1,53 -4,8 10,5 8,6 -2,6 2,80 3,00 94% 55% 84,3% 74,5% 4,2 -3,2 0,34 13,38 5,84 SSE 19,3 SSE 7,81 19,3 20 0,0 0,0 0,0 1025,0 1022,4 1023,40 1023,70 2,6   5:01 Ciel entre 0/8 et 3/8, 8/8 en mileu d'après-midi  
07/01/2022 11,2 4,1 8,25 7,66 8,30 11,0 4,75 1,2 7,0 11,2 4,3 8,22 7,75 93% 76% 85,9% 84,5% 8,7 1,5 6,03 39,57 21,32 W 54,7 W 26,51 56,3 55 6,6 1,9 12,0 1024,5 1021,3 1023,06 1022,90 3,2   4:49 Ciel entre 3/8 et 8/8, pluie, averses  
08/01/2022 12,4 8,0 9,90 10,21 10,01 12,3 5,73 2,9 4,3 12,5 8,1 9,92 10,30 93% 75% 88,5% 84,0% 10,1 4,3 8,09 58,08 30,16 WSW 85,3 W 37,57 87,7 87 9,6 2,8 24,0 1022,9 1007,8 1016,78 1015,35 15,1   0:25 Ciel entre 4/8 et 8/8, pluie le soir  
09/01/2022 9,8 7,3 8,80 8,54 8,96 10,0 6,37 3,3 2,5 9,8 7,2 8,79 8,50 94% 80% 89,9% 87,0% 8,4 5,0 7,25 35,24 15,36 W 46,7 W 18,68 48,6 48 10,6 4,3 12,0 1014,0 1011,4 1012,34 1012,70 2,6   0:01 Ciel 8/8, averses, pluie  
10/01/2022 9,8 7,9 8,81 8,87 9,01 10,1 8,47 4,9 2,0 9,9 7,8 8,80 8,85 94% 93% 93,5% 93,5% 8,8 6,9 7,84 14,50 4,39 E 24,1 ESE 6,32 23,0 21 4,6 1,9 12,0 1027,1 1011,8 1019,98 1019,45 15,3   0:00 Ciel 8/8, pluie  
11/01/2022 10,2 0,2 5,03 5,19 5,04 9,9 3,77 -1,9 10,0 10,1 0,1 4,90 5,10 94% 62% 86,5% 78,0% 7,0 -1,2 2,91 11,45 6,57 ENE 17,7 ENE 8,61 16,6 14 0,0 0,0 0,0 1034,6 1027,1 1030,89 1030,85 7,5   8:03 Ciel 0/8  
12/01/2022 4,2 -1,5 1,04 1,34 1,06 4,1 -2,78 -6,8 5,5 4,1 -1,5 0,98 1,30 93% 82% 89,3% 87,5% 1,7 -2,5 -0,42 26,38 14,80 NE 35,4 NE 18,48 35,9 33 0,4 0,2 12,0 1038,3 1034,5 1036,99 1036,40 3,8   6:50 Ciel entre 0/8 et 6/8 le matin, 2/8 à 0/8 ensuite  
13/01/2022 7,8 -1,5 2,42 3,14 2,37 7,4 -0,99 -4,9 9,2 7,7 -1,9 2,36 2,90 92% 63% 84,3% 77,5% 2,1 -2,5 0,03 24,11 14,23 ENE 37,0 NE 18,84 36,5 33 0,0 0,0 0,0 1038,1 1035,1 1036,46 1036,60 3,0   8:06 Ciel 0/8  
14/01/2022 4,4 -4,2 -1,64 0,10 -1,55 4,4 -3,71 -8,9 8,6 4,4 -4,5 -1,81 -0,05 94% 87% 92,5% 90,5% 2,8 -5,0 -2,55 12,10 6,27 NE 17,7 ESE 8,27 16,8 15 0,0 0,0 0,0 1035,2 1030,2 1033,28 1032,70 5,0   3:03 Brouillard givrand, ciel 9/8 puis 0/8  
15/01/2022 5,0 -6,4 -1,89 -0,67 -1,81 4,9 -3,49 -9,6 11,3 5,5 -6,5 -1,97 -0,50 94% 83% 91,5% 88,5% 2,7 -7,2 -2,97 10,00 5,08 NE 16,1 NW 6,67 16,0 13 0,2 0,1 12,0 1030,2 1026,8 1028,52 1028,50 3,4   8:06 Ciel 0/8, 8/8 le soir, brouillard givrand  
16/01/2022 1,8 -2,9 -0,20 -0,54 -0,11 1,9 -0,92 -5,5 4,8 1,9 -3,0 -0,18 -0,55 94% 93% 94,0% 93,5% 1,1 -3,6 -0,91 8,18 3,36 ENE 16,1 ENE 4,79 11,3 10 0,0 0,0 0,0 1037,3 1028,2 1033,50 1032,75 9,1   1:22 Brouillard givrand, ciel entre 0/8 et 8/8 le matin, 8/8 l'après-midi  
17/01/2022 10,2 0,8 4,75 5,50 4,84 10,4 3,39 -0,3 9,3 9,4 0,7 4,69 5,05 95% 87% 91,7% 91,0% 9,1 0,0 3,57 19,30 7,58 ENE 30,6 ENE 10,50 31,0 * 0,2 0,1 12,0 1039,4 1035,7 1037,34 1037,55 3,7   2:42 Brouillard, ciel entre 7/8 et 8/8 le matin, entre 2/8 et 8/8 l'après-midi  
18/01/2022 7,0 0,6 4,59 3,79 4,60 7,0 2,64 -3,0 6,4 7,0 0,6 4,59 3,80 93% 79% 87,9% 86,0% 4,4 -0,3 2,82 24,60 9,46 ENE 38,6 ENE 12,59 38,4 38 0,0 0,0 0,0 1035,8 1031,9 1033,53 1033,85 3,9   0:49 Ciel entre 6/8 et 8/8  
19/01/2022 6,7 3,8 5,04 5,25 5,09 6,7 3,86 1,3 2,9 6,7 3,8 5,05 5,25 94% 82% 90,4% 88,0% 4,8 2,7 3,66 13,22 6,36 NW 19,3 NW 8,29 17,9 15 1,6 0,7 12,0 1033,2 1031,1 1032,07 1032,15 2,1   0:31 Ciel 8/8 le matin, 8/8 à 3/8 l'après-midi, 8/8 le soir, pluie faible  
                                                                                 
                                                                                 
                                                                                 
                                                                                 
                                                                                 
                                                                                 
                                                                                 
                                                                                 
                                                                                 
                                                                                 
                                                                                 
                                                                                 
  Température (°C) - Abri Young à ventilation mécanique 43502 (moy/5min)  Davis 7714 (moy/1min) Humidité Vent Davis (km/h) PeetBros Instromet Précipitations (mm) Pression (hPa) Divers  
PT1000 Maxi USCRN /5min Mini  USCRN /5min Moy de 1440 relevés Moy (tx+tn)/2 Index chaleur moyen Index chaleur maxi Froid dû au vent moy/5min  Froid dû au vent mini/5min   Amplitude (tx-tn) Tx OMM/1min Tn OMM/1min Moy de 1440 relevés Moy (tx+tn)/2 Relative maxi Relative mini Relative moy de 1440 relevés Relative moy (hx+hn)/2 Point de rosée maxi Point de rosée mini Point de rosée moy 1440 relevés Vent moy maxi (10min) Vent  moyen (24h) Direction dominante Rafales (km/h) maxi Direction rafale maxi Rafales moy (24h) Rafales (km/h)   maxi Rafales (km/h)   maxi Total du jour (mm) Durée en heures et dixièmes Intensité maxi sur 1 min (mm/h) Maxi Mini Moy de 1440 relevés Moy (px+pn)/2 Variation Epaisseur neige (cm) Ensoleillement (h:min) Remarques diverses  
Maxi 15,1 11,2 12,57 12,95 12,63 15,1 10,64 8,7 11,3 15,6 11,2 12,54 13,10 95% 93% 94,0% 93,5% 13,4 10,1 11,07 58,08 30,16 ENE 85,3 W 37,57 87,7 87 10,6 4,3 24,0 1039,4 1035,7 1037,34 1037,55 17,4 0,0 8:06:00    
Mini 1,8 -6,4 -1,89 -0,67 -1,81 1,9 -3,71 -9,6 2,0 1,9 -6,5 -1,97 -0,55 92% 55% 84,3% 74,5% 1,1 -7,2 -2,97 8,18 3,36   16,1   4,79 11,3 10       1014,0 1003,5 1007,50 1008,95 2,1        
Moy 9,21 2,31 5,61 5,76 5,67 9,16 3,56 -0,73 6,85 9,26 2,25 5,58 5,76 93,6% 78,4% 89,3% 86,0% 6,85 1,00 4,01 22,92 11,45   33,80   14,80 34,08 33,5       1028,91 1022,22 1025,80 1025,56 6,69        
Total                                                         47,0 16,1             0,0 65:20:00    
   
Observations    
Jours Rafales >= 36,0 km/h Rafales >= 57,6 km/h Rafales >= 75,6 km/h Rafales >= 100,8 km/h Précipi. >= 0,1 mm Précipi. >= 1,0 mm Précipi. >= 5,0 mm Précipi. >= 10,0 mm Tx <= 0 Tx <= -5 Tx <= -10 Tx >= 20 Tx >= 25 Tx >= 30 Tx >= 35 Tx >= 40 Tn <= 0 Tn <= -5 Tn <= -10 Tn <= -15 Tn <= -20 T moy <= 0 T moy <=     -5 T moy <=     -10 T moy >= 20 T moy >= 25 T moy >= 30 Grêle Grésil Brouillard Brume Orage Neige        
01/01/2022 0 0 0 0 1 0 0 0 0 0 0 0 0 0 0 0 0 0 0 0 0 0 0 0 0 0 0 0 0 0 0 0 0    
02/01/2022 1 0 0 0 1 0 0 0 0 0 0 0 0 0 0 0 0 0 0 0 0 0 0 0 0 0 0 0 0 0 0 0 0    
03/01/2022 1 0 0 0 1 1 0 0 0 0 0 0 0 0 0 0 0 0 0 0 0 0 0 0 0 0 0 0 0 0 0 0 0    
04/01/2022 1 0 0 0 1 1 1 0 0 0 0 0 0 0 0 0 0 0 0 0 0 0 0 0 0 0 0 0 0 0 0 0 0    
05/01/2022 0 0 0 0 1 0 0 0 0 0 0 0 0 0 0 0 1 0 0 0 0 0 0 0 0 0 0 0 0 0 0 0 0    
06/01/2022 0 0 0 0 0 0 0 0 0 0 0 0 0 0 0 0 1 0 0 0 0 0 0 0 0 0 0 0 0 0 0 0 0    
07/01/2022 1 0 0 0 1 1 1 0 0 0 0 0 0 0 0 0 0 0 0 0 0 0 0 0 0 0 0 0 0 0 0 0 0    
08/01/2022 1 1 1 0 1 1 1 0 0 0 0 0 0 0 0 0 0 0 0 0 0 0 0 0 0 0 0 0 0 0 0 0 0    
09/01/2022 1 0 0 0 1 1 1 1 0 0 0 0 0 0 0 0 0 0 0 0 0 0 0 0 0 0 0 0 0 0 0 0 0    
10/01/2022 0 0 0 0 1 1 0 0 0 0 0 0 0 0 0 0 0 0 0 0 0 0 0 0 0 0 0 0 0 0 0 0 0    
11/01/2022 0 0 0 0 0 0 0 0 0 0 0 0 0 0 0 0 0 0 0 0 0 0 0 0 0 0 0 0 0 0 0 0 0    
12/01/2022 0 0 0 0 1 0 0 0 0 0 0 0 0 0 0 0 1 0 0 0 0 0 0 0 0 0 0 0 0 0 0 0 0    
13/01/2022 1 0 0 0 0 0 0 0 0 0 0 0 0 0 0 0 1 0 0 0 0 0 0 0 0 0 0 0 0 0 0 0 0    
14/01/2022 0 0 0 0 0 0 0 0 0 0 0 0 0 0 0 0 1 0 0 0 0 1 1 1 1 1 1 1 0 1 0 0 0    
15/01/2022 0 0 0 0 1 0 0 0 0 0 0 0 0 0 0 0 1 1 0 0 0 1 1 1 1 1 1 1 0 1 0 0 0    
16/01/2022 0 0 0 0 0 0 0 0 0 0 0 0 0 0 0 0 1 0 0 0 0 1 1 1 1 1 1 1 0 1 0 0 0    
17/01/2022 0 0 0 0 1 0 0 0 0 0 0 0 0 0 0 0 0 0 0 0 0 0 0 0 0 0 0 0 0 1 0 0 0    
18/01/2022 1 0 0 0 0 0 0 0 0 0 0 0 0 0 0 0 0 0 0 0 0 0 0 0 0 0 0 0 0 0 0 0 0    
19/01/2022 0 0 0 0 1 1 0 0 0 0 0 0 0 0 0 0 0 0 0 0 0 0 0 0 0 0 0 0 0 0 0 0 0    
                                                                       
                                                                       
                                                                       
                                                                       
                                                                       
                                                                       
                                                                       
                                                                       
                                                                       
                                                                           
                                                                       
                                                                       
   
  Rafales >= 36,0 km/h Rafales >= 57,6 km/h Rafales >= 75,6 km/h Rafales >= 100,8 km/h Précipi. >= 0,1 mm Précipi. >= 1,0 mm Précipi. >= 5,0 mm Précipi. >= 10,0 mm Tx <=0 Tx <= -5 Tx <= -10 Tx >= 20 Tx >= 25 Tx >= 30 Tx >= 35 Tx >= 40 Tn <= 0 Tn <= -5 Tn <= -10 Tn <= -15 Tn <= -20 T moy <= 0 T moy <=  -5 T moy <=  -10 T moy >= 20 T moy >= 25 T moy >= 30 Grêle Grésil Brouillard Brume Orage Neige        
Total 8 1 1 0 13 7 4 1 0 0 0 0 0 0 0 0 7 1 0 0 0 3 3 3 3 3 3 3 0 4 0 0 0